sensor_id;sensor_type;location;lat;lon;timestamp;pressure;altitude;pressure_sealevel;temperature;humidity
54329;BME280;40710;51.120;13.136;2023-01-26T00:02:31;100076.63;;;5.71;60.53
54329;BME280;40710;51.120;13.136;2023-01-26T00:05:06;100076.66;;;5.69;60.88
54329;BME280;40710;51.120;13.136;2023-01-26T00:07:41;100081.81;;;6.11;59.96
54329;BME280;40710;51.120;13.136;2023-01-26T00:10:19;100079.63;;;5.93;60.78
54329;BME280;40710;51.120;13.136;2023-01-26T00:12:54;100072.63;;;5.96;60.43
54329;BME280;40710;51.120;13.136;2023-01-26T00:15:33;100073.13;;;6.12;60.03
54329;BME280;40710;51.120;13.136;2023-01-26T00:18:09;100078.19;;;6.17;59.95
54329;BME280;40710;51.120;13.136;2023-01-26T00:20:44;100068.78;;;6.11;60.32
54329;BME280;40710;51.120;13.136;2023-01-26T00:23:19;100062.22;;;5.93;60.91
54329;BME280;40710;51.120;13.136;2023-01-26T00:25:54;100067.50;;;5.88;61.09
54329;BME280;40710;51.120;13.136;2023-01-26T00:28:29;100063.28;;;5.84;61.50
54329;BME280;40710;51.120;13.136;2023-01-26T00:31:11;100058.59;;;6.00;60.79
54329;BME280;40710;51.120;13.136;2023-01-26T00:33:47;100069.38;;;5.83;61.11
54329;BME280;40710;51.120;13.136;2023-01-26T00:36:22;100066.16;;;6.11;60.26
54329;BME280;40710;51.120;13.136;2023-01-26T00:38:57;100060.97;;;6.10;60.40
54329;BME280;40710;51.120;13.136;2023-01-26T00:41:32;100061.19;;;6.00;60.46
54329;BME280;40710;51.120;13.136;2023-01-26T00:44:25;100057.47;;;6.12;60.12
54329;BME280;40710;51.120;13.136;2023-01-26T00:47:00;100058.41;;;6.08;60.57
54329;BME280;40710;51.120;13.136;2023-01-26T00:49:35;100057.47;;;6.12;60.22
54329;BME280;40710;51.120;13.136;2023-01-26T00:52:11;100061.00;;;6.08;60.13
54329;BME280;40710;51.120;13.136;2023-01-26T00:54:48;100058.72;;;6.32;59.57
54329;BME280;40710;51.120;13.136;2023-01-26T00:57:25;100052.19;;;5.75;60.67
54329;BME280;40710;51.120;13.136;2023-01-26T00:59:59;100057.91;;;5.91;60.53
54329;BME280;40710;51.120;13.136;2023-01-26T01:02:34;100052.06;;;5.81;60.86
54329;BME280;40710;51.120;13.136;2023-01-26T01:05:10;100055.13;;;6.00;60.17
54329;BME280;40710;51.120;13.136;2023-01-26T01:07:48;100058.41;;;6.08;60.14
54329;BME280;40710;51.120;13.136;2023-01-26T01:10:24;100046.56;;;5.93;60.41
54329;BME280;40710;51.120;13.136;2023-01-26T01:13:13;100048.59;;;6.19;59.53
54329;BME280;40710;51.120;13.136;2023-01-26T01:15:48;100044.44;;;6.11;59.59
54329;BME280;40710;51.120;13.136;2023-01-26T01:18:23;100036.59;;;6.12;59.13
54329;BME280;40710;51.120;13.136;2023-01-26T01:20:58;100045.16;;;6.17;59.38
54329;BME280;40710;51.120;13.136;2023-01-26T01:23:33;100040.09;;;6.10;59.62
54329;BME280;40710;51.120;13.136;2023-01-26T01:26:08;100032.44;;;6.03;60.08
54329;BME280;40710;51.120;13.136;2023-01-26T01:28:45;100034.25;;;6.00;59.56
54329;BME280;40710;51.120;13.136;2023-01-26T01:31:22;100018.00;;;6.24;58.80
54329;BME280;40710;51.120;13.136;2023-01-26T01:33:57;100030.66;;;6.05;59.48
54329;BME280;40710;51.120;13.136;2023-01-26T01:36:32;100027.09;;;6.08;59.34
54329;BME280;40710;51.120;13.136;2023-01-26T01:39:08;100028.78;;;6.11;59.26
54329;BME280;40710;51.120;13.136;2023-01-26T01:41:42;100025.03;;;5.83;60.09
54329;BME280;40710;51.120;13.136;2023-01-26T01:44:23;100025.69;;;5.93;60.00
54329;BME280;40710;51.120;13.136;2023-01-26T01:47:03;100026.44;;;6.00;59.78
54329;BME280;40710;51.120;13.136;2023-01-26T01:49:45;100009.59;;;6.12;60.13
54329;BME280;40710;51.120;13.136;2023-01-26T01:52:30;100008.66;;;6.16;59.82
54329;BME280;40710;51.120;13.136;2023-01-26T01:55:08;99996.47;;;6.16;59.28
54329;BME280;40710;51.120;13.136;2023-01-26T01:57:54;100004.44;;;6.10;59.38
54329;BME280;40710;51.120;13.136;2023-01-26T02:00:31;99990.66;;;6.05;59.35
54329;BME280;40710;51.120;13.136;2023-01-26T02:03:08;99983.03;;;5.96;59.29
54329;BME280;40710;51.120;13.136;2023-01-26T02:06:05;99989.06;;;5.59;60.52
54329;BME280;40710;51.120;13.136;2023-01-26T02:08:47;99987.88;;;5.74;59.76
54329;BME280;40710;51.120;13.136;2023-01-26T02:11:32;99989.59;;;6.12;59.14
54329;BME280;40710;51.120;13.136;2023-01-26T02:14:13;99980.72;;;6.19;59.04
54329;BME280;40710;51.120;13.136;2023-01-26T02:16:49;99979.94;;;6.16;58.37
54329;BME280;40710;51.120;13.136;2023-01-26T02:28:26;99954.88;;;6.10;59.67
54329;BME280;40710;51.120;13.136;2023-01-26T02:31:02;99957.78;;;5.98;60.07
54329;BME280;40710;51.120;13.136;2023-01-26T02:33:38;99952.25;;;6.10;59.85
54329;BME280;40710;51.120;13.136;2023-01-26T02:36:23;99959.09;;;5.00;62.41
54329;BME280;40710;51.120;13.136;2023-01-26T02:41:47;99955.47;;;5.07;63.34
54329;BME280;40710;51.120;13.136;2023-01-26T02:44:43;99949.41;;;5.07;63.17
54329;BME280;40710;51.120;13.136;2023-01-26T02:47:19;99940.66;;;5.86;61.24
54329;BME280;40710;51.120;13.136;2023-01-26T02:49:54;99931.06;;;6.22;59.60
54329;BME280;40710;51.120;13.136;2023-01-26T02:52:29;99927.25;;;6.34;58.85
54329;BME280;40710;51.120;13.136;2023-01-26T02:55:07;99922.00;;;6.36;58.85
54329;BME280;40710;51.120;13.136;2023-01-26T02:58:04;99925.16;;;6.49;58.69
54329;BME280;40710;51.120;13.136;2023-01-26T03:00:39;99931.88;;;6.24;59.66
54329;BME280;40710;51.120;13.136;2023-01-26T03:03:28;99922.47;;;6.50;58.97
54329;BME280;40710;51.120;13.136;2023-01-26T03:06:15;99924.56;;;6.37;59.43
54329;BME280;40710;51.120;13.136;2023-01-26T03:08:49;99923.66;;;6.40;59.19
54329;BME280;40710;51.120;13.136;2023-01-26T03:11:23;99908.44;;;6.54;58.60
54329;BME280;40710;51.120;13.136;2023-01-26T03:14:16;99917.31;;;6.16;58.76
54329;BME280;40710;51.120;13.136;2023-01-26T03:16:51;99914.56;;;6.20;59.19
54329;BME280;40710;51.120;13.136;2023-01-26T03:19:26;99918.53;;;6.02;59.87
54329;BME280;40710;51.120;13.136;2023-01-26T03:22:20;99909.84;;;6.02;59.64
54329;BME280;40710;51.120;13.136;2023-01-26T03:25:14;99914.03;;;6.08;59.88
54329;BME280;40710;51.120;13.136;2023-01-26T03:28:09;99916.84;;;6.00;60.12
54329;BME280;40710;51.120;13.136;2023-01-26T03:30:46;99917.91;;;5.91;59.96
54329;BME280;40710;51.120;13.136;2023-01-26T03:33:20;99913.13;;;5.73;60.62
54329;BME280;40710;51.120;13.136;2023-01-26T03:35:55;99913.91;;;5.76;60.64
54329;BME280;40710;51.120;13.136;2023-01-26T03:38:30;99912.13;;;5.78;60.92
54329;BME280;40710;51.120;13.136;2023-01-26T03:41:05;99911.34;;;5.75;61.27
54329;BME280;40710;51.120;13.136;2023-01-26T03:43:58;99910.38;;;5.80;60.35
54329;BME280;40710;51.120;13.136;2023-01-26T03:46:52;99904.59;;;5.66;60.92
54329;BME280;40710;51.120;13.136;2023-01-26T03:49:46;99912.41;;;5.67;59.98
54329;BME280;40710;51.120;13.136;2023-01-26T03:52:40;99918.69;;;5.59;60.21
54329;BME280;40710;51.120;13.136;2023-01-26T03:55:35;99923.59;;;4.95;61.64
54329;BME280;40710;51.120;13.136;2023-01-26T03:58:29;99916.75;;;4.89;61.51
54329;BME280;40710;51.120;13.136;2023-01-26T04:01:04;99919.50;;;4.83;61.37
54329;BME280;40710;51.120;13.136;2023-01-26T04:03:40;99911.72;;;5.22;60.64
54329;BME280;40710;51.120;13.136;2023-01-26T04:06:36;99915.81;;;4.93;60.93
54329;BME280;40710;51.120;13.136;2023-01-26T04:09:33;99895.41;;;5.51;58.83
54329;BME280;40710;51.120;13.136;2023-01-26T04:12:10;99884.97;;;5.87;58.27
54329;BME280;40710;51.120;13.136;2023-01-26T04:14:47;99886.63;;;5.91;57.57
54329;BME280;40710;51.120;13.136;2023-01-26T04:17:41;99888.50;;;5.48;59.23
54329;BME280;40710;51.120;13.136;2023-01-26T04:20:35;99889.94;;;5.26;58.59
54329;BME280;40710;51.120;13.136;2023-01-26T04:23:49;99867.25;;;6.33;57.08
54329;BME280;40710;51.120;13.136;2023-01-26T04:26:29;99879.09;;;5.05;58.85
54329;BME280;40710;51.120;13.136;2023-01-26T04:29:12;99879.41;;;5.29;59.06
54329;BME280;40710;51.120;13.136;2023-01-26T04:31:47;99874.16;;;6.02;57.78
54329;BME280;40710;51.120;13.136;2023-01-26T04:34:24;99870.78;;;5.99;57.98
54329;BME280;40710;51.120;13.136;2023-01-26T04:36:58;99870.31;;;5.81;57.53
54329;BME280;40710;51.120;13.136;2023-01-26T04:39:33;99878.16;;;5.81;58.60
54329;BME280;40710;51.120;13.136;2023-01-26T04:42:08;99860.50;;;6.25;57.06
54329;BME280;40710;51.120;13.136;2023-01-26T04:44:43;99867.16;;;6.04;56.95
54329;BME280;40710;51.120;13.136;2023-01-26T04:47:20;99879.59;;;5.57;58.68
54329;BME280;40710;51.120;13.136;2023-01-26T04:49:55;99876.56;;;5.40;59.41
54329;BME280;40710;51.120;13.136;2023-01-26T04:52:30;99885.72;;;5.19;60.18
54329;BME280;40710;51.120;13.136;2023-01-26T04:55:05;99869.03;;;6.32;57.54
54329;BME280;40710;51.120;13.136;2023-01-26T04:57:40;99861.97;;;6.36;56.33
54329;BME280;40710;51.120;13.136;2023-01-26T05:00:15;99882.63;;;6.12;57.32
54329;BME280;40710;51.120;13.136;2023-01-26T05:02:50;99881.59;;;5.82;57.96
54329;BME280;40710;51.120;13.136;2023-01-26T05:05:27;99888.47;;;5.86;57.43
54329;BME280;40710;51.120;13.136;2023-01-26T05:08:03;99874.59;;;6.18;57.60
54329;BME280;40710;51.120;13.136;2023-01-26T05:10:38;99889.13;;;5.96;57.63
54329;BME280;40710;51.120;13.136;2023-01-26T05:13:13;99891.25;;;5.78;58.25
54329;BME280;40710;51.120;13.136;2023-01-26T05:15:48;99889.50;;;5.80;58.18
54329;BME280;40710;51.120;13.136;2023-01-26T05:18:23;99874.78;;;6.12;57.38
54329;BME280;40710;51.120;13.136;2023-01-26T05:20:58;99885.44;;;5.31;59.26
54329;BME280;40710;51.120;13.136;2023-01-26T05:23:33;99871.25;;;5.80;58.27
54329;BME280;40710;51.120;13.136;2023-01-26T05:26:09;99880.50;;;5.58;58.43
54329;BME280;40710;51.120;13.136;2023-01-26T05:28:43;99871.22;;;6.15;57.14
54329;BME280;40710;51.120;13.136;2023-01-26T05:31:32;99879.88;;;5.82;57.32
54329;BME280;40710;51.120;13.136;2023-01-26T05:34:05;99872.91;;;6.17;57.00
54329;BME280;40710;51.120;13.136;2023-01-26T05:36:40;99878.78;;;5.91;57.64
54329;BME280;40710;51.120;13.136;2023-01-26T05:39:15;99875.72;;;5.75;57.55
54329;BME280;40710;51.120;13.136;2023-01-26T05:41:50;99865.63;;;6.29;56.95
54329;BME280;40710;51.120;13.136;2023-01-26T05:44:25;99868.25;;;5.94;57.10
54329;BME280;40710;51.120;13.136;2023-01-26T05:47:02;99870.41;;;6.13;57.24
54329;BME280;40710;51.120;13.136;2023-01-26T05:49:37;99875.56;;;6.16;57.37
54329;BME280;40710;51.120;13.136;2023-01-26T05:52:19;99871.69;;;5.98;57.66
54329;BME280;40710;51.120;13.136;2023-01-26T05:54:57;99880.28;;;5.65;57.53
54329;BME280;40710;51.120;13.136;2023-01-26T05:57:32;99870.06;;;6.27;56.65
54329;BME280;40710;51.120;13.136;2023-01-26T06:00:09;99877.22;;;5.48;57.47
54329;BME280;40710;51.120;13.136;2023-01-26T06:02:44;99877.47;;;5.73;57.66
54329;BME280;40710;51.120;13.136;2023-01-26T06:05:19;99874.56;;;6.20;56.61
54329;BME280;40710;51.120;13.136;2023-01-26T06:07:54;99880.78;;;5.80;57.50
54329;BME280;40710;51.120;13.136;2023-01-26T06:10:31;99892.09;;;5.07;59.57
54329;BME280;40710;51.120;13.136;2023-01-26T06:13:06;99886.59;;;5.57;58.94
54329;BME280;40710;51.120;13.136;2023-01-26T06:15:41;99879.31;;;5.69;58.16
54329;BME280;40710;51.120;13.136;2023-01-26T06:18:16;99879.44;;;5.65;58.68
54329;BME280;40710;51.120;13.136;2023-01-26T06:20:51;99867.59;;;6.20;56.93
54329;BME280;40710;51.120;13.136;2023-01-26T06:23:28;99881.81;;;5.74;57.50
54329;BME280;40710;51.120;13.136;2023-01-26T06:26:03;99889.09;;;5.61;58.20
54329;BME280;40710;51.120;13.136;2023-01-26T06:28:39;99895.00;;;4.49;60.19
54329;BME280;40710;51.120;13.136;2023-01-26T06:31:27;99895.28;;;5.18;59.78
54329;BME280;40710;51.120;13.136;2023-01-26T06:34:04;99892.09;;;5.44;59.66
54329;BME280;40710;51.120;13.136;2023-01-26T06:36:41;99888.28;;;5.20;59.07
54329;BME280;40710;51.120;13.136;2023-01-26T06:39:16;99899.03;;;5.06;60.66
54329;BME280;40710;51.120;13.136;2023-01-26T06:41:51;99894.16;;;5.30;60.05
54329;BME280;40710;51.120;13.136;2023-01-26T06:44:26;99895.69;;;5.75;59.36
54329;BME280;40710;51.120;13.136;2023-01-26T06:47:01;99900.50;;;5.56;60.05
54329;BME280;40710;51.120;13.136;2023-01-26T06:49:36;99908.78;;;5.37;60.28
54329;BME280;40710;51.120;13.136;2023-01-26T06:52:31;99903.41;;;5.79;59.77
54329;BME280;40710;51.120;13.136;2023-01-26T06:55:21;99907.84;;;5.76;59.35
54329;BME280;40710;51.120;13.136;2023-01-26T06:57:57;99903.09;;;5.92;59.31
54329;BME280;40710;51.120;13.136;2023-01-26T07:00:32;99904.25;;;5.80;58.83
54329;BME280;40710;51.120;13.136;2023-01-26T07:03:09;99901.28;;;5.97;59.51
54329;BME280;40710;51.120;13.136;2023-01-26T07:05:44;99897.06;;;6.24;58.73
54329;BME280;40710;51.120;13.136;2023-01-26T07:08:19;99893.16;;;6.08;59.14
54329;BME280;40710;51.120;13.136;2023-01-26T07:10:54;99895.06;;;5.66;59.66
54329;BME280;40710;51.120;13.136;2023-01-26T07:13:29;99875.28;;;6.27;58.13
54329;BME280;40710;51.120;13.136;2023-01-26T07:16:08;99876.34;;;6.19;58.34
54329;BME280;40710;51.120;13.136;2023-01-26T07:18:44;99880.44;;;6.28;58.50
54329;BME280;40710;51.120;13.136;2023-01-26T07:21:19;99887.38;;;5.96;59.35
54329;BME280;40710;51.120;13.136;2023-01-26T07:23:55;99882.91;;;5.65;59.87
54329;BME280;40710;51.120;13.136;2023-01-26T07:26:29;99886.31;;;6.03;58.71
54329;BME280;40710;51.120;13.136;2023-01-26T07:29:04;99891.66;;;5.63;60.12
54329;BME280;40710;51.120;13.136;2023-01-26T07:31:39;99894.28;;;5.24;61.50
54329;BME280;40710;51.120;13.136;2023-01-26T07:34:16;99889.81;;;5.68;60.20
54329;BME280;40710;51.120;13.136;2023-01-26T07:36:52;99886.22;;;5.72;60.05
54329;BME280;40710;51.120;13.136;2023-01-26T07:39:27;99877.56;;;6.06;59.40
54329;BME280;40710;51.120;13.136;2023-01-26T07:42:02;99880.41;;;5.97;58.99
54329;BME280;40710;51.120;13.136;2023-01-26T07:44:37;99886.22;;;5.72;59.29
54329;BME280;40710;51.120;13.136;2023-01-26T07:47:12;99884.03;;;5.18;60.21
54329;BME280;40710;51.120;13.136;2023-01-26T07:49:49;99879.94;;;5.79;59.92
54329;BME280;40710;51.120;13.136;2023-01-26T07:52:24;99872.34;;;6.37;58.46
54329;BME280;40710;51.120;13.136;2023-01-26T07:55:00;99881.81;;;6.10;58.68
54329;BME280;40710;51.120;13.136;2023-01-26T07:57:35;99878.22;;;5.78;58.79
54329;BME280;40710;51.120;13.136;2023-01-26T08:00:11;99878.81;;;5.90;58.62
54329;BME280;40710;51.120;13.136;2023-01-26T08:02:49;99876.69;;;6.05;59.09
54329;BME280;40710;51.120;13.136;2023-01-26T08:05:24;99879.25;;;6.09;58.79
54329;BME280;40710;51.120;13.136;2023-01-26T08:07:59;99880.41;;;5.97;59.67
54329;BME280;40710;51.120;13.136;2023-01-26T08:10:34;99874.56;;;6.53;57.52
54329;BME280;40710;51.120;13.136;2023-01-26T08:13:21;99878.53;;;6.02;59.02
54329;BME280;40710;51.120;13.136;2023-01-26T08:16:01;99885.84;;;5.87;59.56
54329;BME280;40710;51.120;13.136;2023-01-26T08:18:35;99882.00;;;5.29;60.24
54329;BME280;40710;51.120;13.136;2023-01-26T08:21:13;99888.94;;;5.67;60.17
54329;BME280;40710;51.120;13.136;2023-01-26T08:23:49;99881.81;;;6.10;59.29
54329;BME280;40710;51.120;13.136;2023-01-26T08:26:41;99863.69;;;6.37;57.63
54329;BME280;40710;51.120;13.136;2023-01-26T08:29:17;99871.94;;;5.51;60.10
54329;BME280;40710;51.120;13.136;2023-01-26T08:31:54;99881.75;;;5.77;59.19
54329;BME280;40710;51.120;13.136;2023-01-26T08:34:29;99873.63;;;5.88;59.86
54329;BME280;40710;51.120;13.136;2023-01-26T08:37:04;99873.06;;;6.11;59.53
54329;BME280;40710;51.120;13.136;2023-01-26T08:39:51;99865.53;;;6.33;58.14
54329;BME280;40710;51.120;13.136;2023-01-26T08:42:26;99869.31;;;6.21;58.61
54329;BME280;40710;51.120;13.136;2023-01-26T08:45:01;99876.75;;;6.04;58.90
54329;BME280;40710;51.120;13.136;2023-01-26T08:47:38;99880.81;;;5.78;58.77
54329;BME280;40710;51.120;13.136;2023-01-26T08:50:12;99894.66;;;5.46;60.18
54329;BME280;40710;51.120;13.136;2023-01-26T08:52:47;99883.31;;;5.11;60.47
54329;BME280;40710;51.120;13.136;2023-01-26T08:55:22;99882.72;;;6.08;58.97
54329;BME280;40710;51.120;13.136;2023-01-26T08:57:57;99878.53;;;6.35;58.17
54329;BME280;40710;51.120;13.136;2023-01-26T09:00:45;99884.03;;;6.24;58.35
54329;BME280;40710;51.120;13.136;2023-01-26T09:03:20;99875.31;;;6.25;58.35
54329;BME280;40710;51.120;13.136;2023-01-26T09:05:59;99881.97;;;6.04;57.89
54329;BME280;40710;51.120;13.136;2023-01-26T09:08:35;99882.81;;;6.04;57.11
54329;BME280;40710;51.120;13.136;2023-01-26T09:11:11;99894.78;;;5.40;59.66
54329;BME280;40710;51.120;13.136;2023-01-26T09:13:49;99880.91;;;6.11;58.14
54329;BME280;40710;51.120;13.136;2023-01-26T09:16:30;99872.41;;;6.36;56.96
54329;BME280;40710;51.120;13.136;2023-01-26T09:19:05;99882.22;;;5.93;58.01
54329;BME280;40710;51.120;13.136;2023-01-26T09:21:40;99870.31;;;6.17;58.01
54329;BME280;40710;51.120;13.136;2023-01-26T09:24:17;99881.53;;;5.85;58.12
54329;BME280;40710;51.120;13.136;2023-01-26T09:26:53;99879.91;;;5.81;58.07
54329;BME280;40710;51.120;13.136;2023-01-26T09:29:28;99870.19;;;6.20;57.47
54329;BME280;40710;51.120;13.136;2023-01-26T09:32:05;99874.97;;;6.37;56.82
54329;BME280;40710;51.120;13.136;2023-01-26T09:34:40;99885.84;;;5.87;57.65
54329;BME280;40710;51.120;13.136;2023-01-26T09:37:15;99892.38;;;5.32;58.45
54329;BME280;40710;51.120;13.136;2023-01-26T09:39:50;99894.47;;;5.90;58.47
54329;BME280;40710;51.120;13.136;2023-01-26T09:42:38;99893.94;;;6.11;57.42
54329;BME280;40710;51.120;13.136;2023-01-26T09:45:26;99898.13;;;5.82;58.87
54329;BME280;40710;51.120;13.136;2023-01-26T09:48:25;99900.16;;;5.69;58.25
54329;BME280;40710;51.120;13.136;2023-01-26T09:51:18;99896.31;;;6.20;57.51
54329;BME280;40710;51.120;13.136;2023-01-26T09:54:24;99905.97;;;5.45;58.94
54329;BME280;40710;51.120;13.136;2023-01-26T09:57:15;99905.09;;;5.08;59.18
54329;BME280;40710;51.120;13.136;2023-01-26T10:00:02;99902.25;;;4.79;60.42
54329;BME280;40710;51.120;13.136;2023-01-26T10:02:51;99895.25;;;5.57;58.68
54329;BME280;40710;51.120;13.136;2023-01-26T10:08:23;99899.16;;;5.39;58.55
54329;BME280;40710;51.120;13.136;2023-01-26T10:11:09;99894.16;;;5.30;58.96
54329;BME280;40710;51.120;13.136;2023-01-26T10:13:52;99899.25;;;4.96;59.29
54329;BME280;40710;51.120;13.136;2023-01-26T10:16:32;99893.34;;;5.28;58.69
54329;BME280;40710;51.120;13.136;2023-01-26T10:19:18;99886.03;;;5.78;58.12
54329;BME280;40710;51.120;13.136;2023-01-26T10:22:09;99895.47;;;5.48;57.32
54329;BME280;40710;51.120;13.136;2023-01-26T10:24:49;99892.03;;;5.47;58.75
54329;BME280;40710;51.120;13.136;2023-01-26T10:27:27;99879.53;;;5.98;57.32
54329;BME280;40710;51.120;13.136;2023-01-26T10:30:18;99879.72;;;5.88;57.35
54329;BME280;40710;51.120;13.136;2023-01-26T10:32:57;99873.91;;;5.77;58.04
54329;BME280;40710;51.120;13.136;2023-01-26T10:35:31;99882.78;;;5.34;57.73
54329;BME280;40710;51.120;13.136;2023-01-26T10:38:26;99875.44;;;5.50;57.20
54329;BME280;40710;51.120;13.136;2023-01-26T10:41:04;99872.78;;;5.53;56.65
54329;BME280;40710;51.120;13.136;2023-01-26T10:43:55;99879.66;;;5.18;58.58
54329;BME280;40710;51.120;13.136;2023-01-26T10:46:38;99882.34;;;5.14;58.48
54329;BME280;40710;51.120;13.136;2023-01-26T10:49:15;99884.59;;;5.30;58.55
54329;BME280;40710;51.120;13.136;2023-01-26T10:52:06;99880.44;;;5.22;58.83
54329;BME280;40710;51.120;13.136;2023-01-26T10:54:44;99868.13;;;5.64;57.04
54329;BME280;40710;51.120;13.136;2023-01-26T10:57:26;99870.84;;;5.24;57.53
54329;BME280;40710;51.120;13.136;2023-01-26T11:02:58;99871.59;;;5.29;57.86
54329;BME280;40710;51.120;13.136;2023-01-26T11:06:15;99862.38;;;5.52;56.58
54329;BME280;40710;51.120;13.136;2023-01-26T11:08:50;99871.66;;;4.87;58.88
54329;BME280;40710;51.120;13.136;2023-01-26T11:11:28;99881.38;;;5.19;58.91
54329;BME280;40710;51.120;13.136;2023-01-26T11:14:18;99869.59;;;4.62;59.19
54329;BME280;40710;51.120;13.136;2023-01-26T11:17:22;99867.53;;;5.55;59.00
54329;BME280;40710;51.120;13.136;2023-01-26T11:23:21;99855.91;;;5.68;57.34
54329;BME280;40710;51.120;13.136;2023-01-26T11:26:20;99874.00;;;4.99;59.24
54329;BME280;40710;51.120;13.136;2023-01-26T11:29:14;99854.16;;;5.68;57.57
54329;BME280;40710;51.120;13.136;2023-01-26T11:32:21;99841.75;;;5.42;58.27
54329;BME280;40710;51.120;13.136;2023-01-26T11:35:15;99849.84;;;4.92;58.89
54329;BME280;40710;51.120;13.136;2023-01-26T11:38:18;99847.16;;;4.96;59.05
54329;BME280;40710;51.120;13.136;2023-01-26T11:41:14;99831.84;;;5.21;58.46
54329;BME280;40710;51.120;13.136;2023-01-26T11:44:29;99842.59;;;5.07;57.76
54329;BME280;40710;51.120;13.136;2023-01-26T11:47:55;99833.31;;;5.67;57.23
54329;BME280;40710;51.120;13.136;2023-01-26T11:50:45;99827.53;;;5.20;57.52
54329;BME280;40710;51.120;13.136;2023-01-26T12:02:42;99805.78;;;5.90;56.73
54329;BME280;40710;51.120;13.136;2023-01-26T12:05:24;99800.97;;;5.74;56.72
54329;BME280;40710;51.120;13.136;2023-01-26T12:08:19;99806.78;;;5.51;56.94
54329;BME280;40710;51.120;13.136;2023-01-26T12:17:19;99809.19;;;4.85;57.75
54329;BME280;40710;51.120;13.136;2023-01-26T12:20:28;99795.56;;;5.11;57.50
54329;BME280;40710;51.120;13.136;2023-01-26T12:25:50;99788.09;;;4.98;58.18
54329;BME280;40710;51.120;13.136;2023-01-26T12:34:32;99778.72;;;4.89;58.95
54329;BME280;40710;51.120;13.136;2023-01-26T12:41:14;99779.50;;;4.55;59.88
54329;BME280;40710;51.120;13.136;2023-01-26T12:44:19;99754.22;;;5.68;56.26
54329;BME280;40710;51.120;13.136;2023-01-26T12:47:17;99757.34;;;5.81;56.88
54329;BME280;40710;51.120;13.136;2023-01-26T12:50:15;99760.88;;;6.11;55.55
54329;BME280;40710;51.120;13.136;2023-01-26T12:53:04;99762.16;;;5.63;56.42
54329;BME280;40710;51.120;13.136;2023-01-26T12:55:51;99764.56;;;5.37;57.13
54329;BME280;40710;51.120;13.136;2023-01-26T12:58:36;99755.47;;;5.53;56.48
54329;BME280;40710;51.120;13.136;2023-01-26T13:01:20;99759.78;;;5.85;55.28
54329;BME280;40710;51.120;13.136;2023-01-26T13:04:01;99763.16;;;5.58;55.50
54329;BME280;40710;51.120;13.136;2023-01-26T13:06:37;99771.25;;;5.13;56.56
54329;BME280;40710;51.120;13.136;2023-01-26T13:09:24;99772.13;;;5.11;57.14
54329;BME280;40710;51.120;13.136;2023-01-26T13:11:58;99766.31;;;5.36;57.05
54329;BME280;40710;51.120;13.136;2023-01-26T13:14:35;99761.81;;;5.08;56.82
54329;BME280;40710;51.120;13.136;2023-01-26T13:19:52;99756.56;;;5.44;56.07
54329;BME280;40710;51.120;13.136;2023-01-26T13:22:38;99783.38;;;4.76;57.85
54329;BME280;40710;51.120;13.136;2023-01-26T13:25:27;99773.75;;;4.80;57.84
54329;BME280;40710;51.120;13.136;2023-01-26T13:28:12;99765.66;;;4.92;57.91
54329;BME280;40710;51.120;13.136;2023-01-26T13:31:02;99773.69;;;4.83;57.56
54329;BME280;40710;51.120;13.136;2023-01-26T13:33:40;99777.16;;;4.43;59.13
54329;BME280;40710;51.120;13.136;2023-01-26T13:36:20;99774.94;;;5.04;58.33
54329;BME280;40710;51.120;13.136;2023-01-26T13:39:29;99765.63;;;4.93;57.25
54329;BME280;40710;51.120;13.136;2023-01-26T13:42:37;99762.25;;;5.26;57.07
54329;BME280;40710;51.120;13.136;2023-01-26T13:45:49;99767.50;;;4.48;59.05
54329;BME280;40710;51.120;13.136;2023-01-26T13:51:20;99763.66;;;4.64;57.96
54329;BME280;40710;51.120;13.136;2023-01-26T13:54:13;99769.09;;;4.55;57.93
54329;BME280;40710;51.120;13.136;2023-01-26T13:57:05;99763.22;;;5.20;57.65
54329;BME280;40710;51.120;13.136;2023-01-26T13:59:54;99757.31;;;5.14;56.59
54329;BME280;40710;51.120;13.136;2023-01-26T14:02:33;99770.53;;;3.86;59.57
54329;BME280;40710;51.120;13.136;2023-01-26T14:05:20;99761.91;;;4.66;58.42
54329;BME280;40710;51.120;13.136;2023-01-26T14:07:56;99758.69;;;4.55;59.08
54329;BME280;40710;51.120;13.136;2023-01-26T14:10:33;99753.53;;;4.52;59.05
54329;BME280;40710;51.120;13.136;2023-01-26T14:13:32;99766.00;;;4.38;58.57
54329;BME280;40710;51.120;13.136;2023-01-26T14:16:20;99765.41;;;5.01;56.99
54329;BME280;40710;51.120;13.136;2023-01-26T14:19:12;99764.91;;;4.06;58.40
54329;BME280;40710;51.120;13.136;2023-01-26T14:21:56;99772.44;;;4.20;59.65
54329;BME280;40710;51.120;13.136;2023-01-26T14:24:35;99757.53;;;5.40;56.79
54329;BME280;40710;51.120;13.136;2023-01-26T14:27:29;99762.59;;;4.73;57.46
54329;BME280;40710;51.120;13.136;2023-01-26T14:30:26;99755.69;;;5.44;55.98
54329;BME280;40710;51.120;13.136;2023-01-26T14:33:12;99760.19;;;5.39;57.24
54329;BME280;40710;51.120;13.136;2023-01-26T14:35:56;99761.25;;;5.30;56.42
54329;BME280;40710;51.120;13.136;2023-01-26T14:38:42;99769.31;;;5.21;56.74
54329;BME280;40710;51.120;13.136;2023-01-26T14:41:28;99773.13;;;5.06;58.00
54329;BME280;40710;51.120;13.136;2023-01-26T14:44:08;99768.09;;;5.34;56.24
54329;BME280;40710;51.120;13.136;2023-01-26T14:46:49;99783.69;;;4.22;58.62
54329;BME280;40710;51.120;13.136;2023-01-26T14:55:12;99787.59;;;4.82;58.17
54329;BME280;40710;51.120;13.136;2023-01-26T14:57:48;99785.84;;;4.42;58.84
54329;BME280;40710;51.120;13.136;2023-01-26T15:00:37;99780.97;;;4.68;57.62
54329;BME280;40710;51.120;13.136;2023-01-26T15:03:36;99781.16;;;4.98;56.96
54329;BME280;40710;51.120;13.136;2023-01-26T15:09:02;99787.66;;;4.79;57.71
54329;BME280;40710;51.120;13.136;2023-01-26T15:11:38;99785.91;;;4.40;58.73
54329;BME280;40710;51.120;13.136;2023-01-26T15:17:40;99782.78;;;5.38;56.06
54329;BME280;40710;51.120;13.136;2023-01-26T15:22:57;99784.84;;;4.88;57.47
54329;BME280;40710;51.120;13.136;2023-01-26T15:25:33;99801.91;;;3.75;60.56